Pagrindinis puslapis
METAR-TAF:

METAR-TAF

Oro uostai :

Kolkata, Indija

platuma: 22-39N, ilguma: 088-27E, Aukštis: 4 m

Dabartinis oras

Ataskaita buvo paskelbta 29 minutes, ne 21:30 UTC
Vėjas 4 kt iš Vakarų
Temperatūra 26°C
Drėgmė 65%
Slėgis 1009 hPa
Matomumas: 3500 m
migla

METAR: VECC 302130Z 28004KT 3500 HZ NSC 26/19 Q1009 NOSIG

Laikas: 03:29 (21:59 UTC)

Prognozė

Ataskaita buvo paskelbta 1 valandą ir 59 minutes, ne 20:00 UTC
Prognozė galioja nuo 30 metu 21 UTC su 31 metu 06 UTC
Vėjas kt iš Šiaurės
Matomumas: 2800 m
Mažai debesys ne aukštis 10000 ft
migla
Tapsmas
nuo 31 metu 02 UTC su 31 metu 04 UTC
Vėjas 6 kt iš Šiaurės Vakarų
Matomumas: 4000 m
migla

TAF: VECC 302000Z 3021/3106 00000KT 2800 HZ FEW100 BECMG 3102/3104 31006KT 4000 HZ NSC

Orai ataskaitas ir orų prognozės (METAR, TAF).

turimą stotys yra geltonos ir raudonos taškus žemėlapyje.

Perkelti pele per norėdami pamatyti stoties vardą.

Tada spustelėkite, norėdami matyti oro stebėjimo ir prognozės.

Norėdami pakeisti žemėlapį: spustelėkite ant žalios mygtukų su juodo kryžiaus žemyn,; žalią mygtuką su brūkšneliu, jei norite nutolinti; arba žalių rodyklių gretimoms žemėlapius.


METAR-TAF: